sensor_id;sensor_type;location;lat;lon;timestamp;P1;durP1;ratioP1;P2;durP2;ratioP2
52586;SDS011;38480;52.724;6.436;2023-04-25T00:02:21;36.07;;;9.80;;
52586;SDS011;38480;52.724;6.436;2023-04-25T00:04:47;27.27;;;7.03;;
52586;SDS011;38480;52.724;6.436;2023-04-25T00:07:16;33.77;;;7.63;;
52586;SDS011;38480;52.724;6.436;2023-04-25T00:09:43;38.33;;;7.77;;
52586;SDS011;38480;52.724;6.436;2023-04-25T00:12:09;45.20;;;8.13;;
52586;SDS011;38480;52.724;6.436;2023-04-25T00:14:35;32.57;;;8.03;;
52586;SDS011;38480;52.724;6.436;2023-04-25T00:17:01;53.13;;;9.20;;
52586;SDS011;38480;52.724;6.436;2023-04-25T00:19:27;36.80;;;8.73;;
52586;SDS011;38480;52.724;6.436;2023-04-25T00:21:56;43.53;;;9.00;;
52586;SDS011;38480;52.724;6.436;2023-04-25T00:24:23;41.00;;;10.13;;
52586;SDS011;38480;52.724;6.436;2023-04-25T00:26:49;38.73;;;9.20;;
52586;SDS011;38480;52.724;6.436;2023-04-25T00:29:15;41.97;;;11.27;;
52586;SDS011;38480;52.724;6.436;2023-04-25T00:31:41;43.80;;;11.63;;
52586;SDS011;38480;52.724;6.436;2023-04-25T00:34:07;35.93;;;9.30;;
52586;SDS011;38480;52.724;6.436;2023-04-25T00:36:33;37.70;;;9.33;;
52586;SDS011;38480;52.724;6.436;2023-04-25T00:38:59;41.63;;;8.50;;
52586;SDS011;38480;52.724;6.436;2023-04-25T00:41:25;36.97;;;8.40;;
52586;SDS011;38480;52.724;6.436;2023-04-25T00:43:52;40.10;;;9.87;;
52586;SDS011;38480;52.724;6.436;2023-04-25T00:46:19;29.37;;;8.50;;
52586;SDS011;38480;52.724;6.436;2023-04-25T00:48:45;28.73;;;9.00;;
52586;SDS011;38480;52.724;6.436;2023-04-25T00:51:13;33.13;;;9.47;;
52586;SDS011;38480;52.724;6.436;2023-04-25T00:53:41;42.77;;;10.13;;
52586;SDS011;38480;52.724;6.436;2023-04-25T00:56:07;33.53;;;9.30;;
52586;SDS011;38480;52.724;6.436;2023-04-25T00:58:33;40.33;;;8.70;;
52586;SDS011;38480;52.724;6.436;2023-04-25T01:01:00;43.07;;;12.03;;
52586;SDS011;38480;52.724;6.436;2023-04-25T01:03:26;45.40;;;9.37;;
52586;SDS011;38480;52.724;6.436;2023-04-25T01:05:53;33.60;;;9.57;;
52586;SDS011;38480;52.724;6.436;2023-04-25T01:08:21;35.20;;;11.17;;
52586;SDS011;38480;52.724;6.436;2023-04-25T01:10:50;44.13;;;10.07;;
52586;SDS011;38480;52.724;6.436;2023-04-25T01:13:16;38.93;;;9.60;;
52586;SDS011;38480;52.724;6.436;2023-04-25T01:15:42;45.30;;;11.23;;
52586;SDS011;38480;52.724;6.436;2023-04-25T01:18:08;35.23;;;9.40;;
52586;SDS011;38480;52.724;6.436;2023-04-25T01:20:35;31.57;;;9.30;;
52586;SDS011;38480;52.724;6.436;2023-04-25T01:23:03;36.10;;;10.87;;
52586;SDS011;38480;52.724;6.436;2023-04-25T01:25:32;32.50;;;9.10;;
52586;SDS011;38480;52.724;6.436;2023-04-25T01:27:58;34.47;;;9.30;;
52586;SDS011;38480;52.724;6.436;2023-04-25T01:30:28;46.30;;;11.20;;
52586;SDS011;38480;52.724;6.436;2023-04-25T01:32:54;26.50;;;9.77;;
52586;SDS011;38480;52.724;6.436;2023-04-25T01:35:21;33.57;;;9.63;;
52586;SDS011;38480;52.724;6.436;2023-04-25T01:37:49;31.67;;;9.23;;
52586;SDS011;38480;52.724;6.436;2023-04-25T01:40:15;28.67;;;8.57;;
52586;SDS011;38480;52.724;6.436;2023-04-25T01:42:42;32.40;;;7.83;;
52586;SDS011;38480;52.724;6.436;2023-04-25T01:45:10;34.00;;;8.17;;
52586;SDS011;38480;52.724;6.436;2023-04-25T01:47:36;36.20;;;10.80;;
52586;SDS011;38480;52.724;6.436;2023-04-25T01:50:02;30.33;;;7.23;;
52586;SDS011;38480;52.724;6.436;2023-04-25T01:52:29;25.60;;;8.33;;
52586;SDS011;38480;52.724;6.436;2023-04-25T01:54:55;32.93;;;9.67;;
52586;SDS011;38480;52.724;6.436;2023-04-25T01:57:22;32.53;;;10.00;;
52586;SDS011;38480;52.724;6.436;2023-04-25T01:59:48;31.20;;;6.57;;
52586;SDS011;38480;52.724;6.436;2023-04-25T02:02:14;25.90;;;6.97;;
52586;SDS011;38480;52.724;6.436;2023-04-25T02:04:40;38.57;;;9.53;;
52586;SDS011;38480;52.724;6.436;2023-04-25T02:07:06;38.30;;;8.77;;
52586;SDS011;38480;52.724;6.436;2023-04-25T02:09:32;28.13;;;8.57;;
52586;SDS011;38480;52.724;6.436;2023-04-25T02:11:58;21.63;;;6.77;;
52586;SDS011;38480;52.724;6.436;2023-04-25T02:14:25;28.83;;;7.37;;
52586;SDS011;38480;52.724;6.436;2023-04-25T02:16:51;32.47;;;7.63;;
52586;SDS011;38480;52.724;6.436;2023-04-25T02:19:17;37.73;;;8.50;;
52586;SDS011;38480;52.724;6.436;2023-04-25T02:21:43;37.60;;;8.10;;
52586;SDS011;38480;52.724;6.436;2023-04-25T02:24:09;33.90;;;6.63;;
52586;SDS011;38480;52.724;6.436;2023-04-25T02:26:35;20.93;;;6.37;;
52586;SDS011;38480;52.724;6.436;2023-04-25T02:29:01;30.73;;;6.93;;
52586;SDS011;38480;52.724;6.436;2023-04-25T02:31:27;23.37;;;5.70;;
52586;SDS011;38480;52.724;6.436;2023-04-25T02:33:53;34.03;;;8.67;;
52586;SDS011;38480;52.724;6.436;2023-04-25T02:36:19;31.40;;;8.10;;
52586;SDS011;38480;52.724;6.436;2023-04-25T02:38:45;34.53;;;7.30;;
52586;SDS011;38480;52.724;6.436;2023-04-25T02:41:11;28.70;;;7.40;;
52586;SDS011;38480;52.724;6.436;2023-04-25T02:43:37;34.37;;;7.60;;
52586;SDS011;38480;52.724;6.436;2023-04-25T02:46:04;26.20;;;7.27;;
52586;SDS011;38480;52.724;6.436;2023-04-25T02:48:30;25.87;;;6.27;;
52586;SDS011;38480;52.724;6.436;2023-04-25T02:50:56;21.47;;;5.63;;
52586;SDS011;38480;52.724;6.436;2023-04-25T02:53:22;21.20;;;6.70;;
52586;SDS011;38480;52.724;6.436;2023-04-25T02:55:48;23.03;;;7.03;;
52586;SDS011;38480;52.724;6.436;2023-04-25T02:58:14;20.23;;;5.40;;
52586;SDS011;38480;52.724;6.436;2023-04-25T03:00:40;20.43;;;5.63;;
52586;SDS011;38480;52.724;6.436;2023-04-25T03:03:06;14.43;;;4.13;;
52586;SDS011;38480;52.724;6.436;2023-04-25T03:05:32;18.73;;;3.83;;
52586;SDS011;38480;52.724;6.436;2023-04-25T03:07:58;13.77;;;3.73;;
52586;SDS011;38480;52.724;6.436;2023-04-25T03:10:24;16.13;;;4.40;;
52586;SDS011;38480;52.724;6.436;2023-04-25T03:12:50;22.77;;;4.33;;
52586;SDS011;38480;52.724;6.436;2023-04-25T03:15:16;20.70;;;4.50;;
52586;SDS011;38480;52.724;6.436;2023-04-25T03:17:43;19.87;;;5.87;;
52586;SDS011;38480;52.724;6.436;2023-04-25T03:20:10;21.07;;;4.77;;
52586;SDS011;38480;52.724;6.436;2023-04-25T03:22:36;30.93;;;5.80;;
52586;SDS011;38480;52.724;6.436;2023-04-25T03:25:02;22.47;;;4.97;;
52586;SDS011;38480;52.724;6.436;2023-04-25T03:27:29;20.87;;;5.17;;
52586;SDS011;38480;52.724;6.436;2023-04-25T03:29:55;22.27;;;4.60;;
52586;SDS011;38480;52.724;6.436;2023-04-25T03:32:21;20.60;;;4.93;;
52586;SDS011;38480;52.724;6.436;2023-04-25T03:34:47;22.13;;;4.67;;
52586;SDS011;38480;52.724;6.436;2023-04-25T03:37:13;27.67;;;6.20;;
52586;SDS011;38480;52.724;6.436;2023-04-25T03:39:39;27.53;;;5.33;;
52586;SDS011;38480;52.724;6.436;2023-04-25T03:42:05;20.80;;;6.77;;
52586;SDS011;38480;52.724;6.436;2023-04-25T03:44:31;46.80;;;8.83;;
52586;SDS011;38480;52.724;6.436;2023-04-25T03:46:57;22.53;;;4.87;;
52586;SDS011;38480;52.724;6.436;2023-04-25T03:49:23;26.13;;;5.97;;
52586;SDS011;38480;52.724;6.436;2023-04-25T03:51:49;21.33;;;5.80;;
52586;SDS011;38480;52.724;6.436;2023-04-25T03:54:15;27.73;;;5.60;;
52586;SDS011;38480;52.724;6.436;2023-04-25T03:56:41;19.70;;;4.03;;
52586;SDS011;38480;52.724;6.436;2023-04-25T03:59:07;24.43;;;4.80;;
52586;SDS011;38480;52.724;6.436;2023-04-25T04:01:33;30.13;;;5.57;;
52586;SDS011;38480;52.724;6.436;2023-04-25T04:04:00;17.97;;;4.77;;
52586;SDS011;38480;52.724;6.436;2023-04-25T04:06:26;25.33;;;4.60;;
52586;SDS011;38480;52.724;6.436;2023-04-25T04:08:52;14.77;;;3.43;;
52586;SDS011;38480;52.724;6.436;2023-04-25T04:11:18;30.43;;;6.17;;
52586;SDS011;38480;52.724;6.436;2023-04-25T04:13:44;25.33;;;4.07;;
52586;SDS011;38480;52.724;6.436;2023-04-25T04:16:10;19.33;;;3.83;;
52586;SDS011;38480;52.724;6.436;2023-04-25T04:18:36;20.43;;;5.43;;
52586;SDS011;38480;52.724;6.436;2023-04-25T04:21:02;13.63;;;3.80;;
52586;SDS011;38480;52.724;6.436;2023-04-25T04:23:28;22.37;;;4.00;;
52586;SDS011;38480;52.724;6.436;2023-04-25T04:25:54;18.67;;;3.93;;
52586;SDS011;38480;52.724;6.436;2023-04-25T04:28:21;12.30;;;3.00;;
52586;SDS011;38480;52.724;6.436;2023-04-25T04:30:47;18.23;;;3.40;;
52586;SDS011;38480;52.724;6.436;2023-04-25T04:33:16;12.50;;;3.10;;
52586;SDS011;38480;52.724;6.436;2023-04-25T04:35:44;23.73;;;5.83;;
52586;SDS011;38480;52.724;6.436;2023-04-25T04:38:11;17.07;;;4.67;;
52586;SDS011;38480;52.724;6.436;2023-04-25T04:40:40;21.63;;;4.40;;
52586;SDS011;38480;52.724;6.436;2023-04-25T04:43:08;21.37;;;3.60;;
52586;SDS011;38480;52.724;6.436;2023-04-25T04:45:35;27.97;;;5.43;;
52586;SDS011;38480;52.724;6.436;2023-04-25T04:48:04;21.83;;;4.47;;
52586;SDS011;38480;52.724;6.436;2023-04-25T04:50:30;13.83;;;4.07;;
52586;SDS011;38480;52.724;6.436;2023-04-25T04:52:57;15.50;;;4.03;;
52586;SDS011;38480;52.724;6.436;2023-04-25T04:55:23;22.67;;;4.33;;
52586;SDS011;38480;52.724;6.436;2023-04-25T04:57:49;22.90;;;4.87;;
52586;SDS011;38480;52.724;6.436;2023-04-25T05:00:15;19.23;;;4.20;;
52586;SDS011;38480;52.724;6.436;2023-04-25T05:02:42;12.20;;;3.17;;
52586;SDS011;38480;52.724;6.436;2023-04-25T05:05:08;15.93;;;3.50;;
52586;SDS011;38480;52.724;6.436;2023-04-25T05:07:34;26.73;;;4.57;;
52586;SDS011;38480;52.724;6.436;2023-04-25T05:10:00;16.33;;;3.90;;
52586;SDS011;38480;52.724;6.436;2023-04-25T05:12:26;15.33;;;3.03;;
52586;SDS011;38480;52.724;6.436;2023-04-25T05:14:53;27.90;;;5.47;;
52586;SDS011;38480;52.724;6.436;2023-04-25T05:17:19;19.13;;;3.60;;
52586;SDS011;38480;52.724;6.436;2023-04-25T05:19:45;17.57;;;3.57;;
52586;SDS011;38480;52.724;6.436;2023-04-25T05:22:11;14.90;;;2.93;;
52586;SDS011;38480;52.724;6.436;2023-04-25T05:24:37;14.20;;;2.87;;
52586;SDS011;38480;52.724;6.436;2023-04-25T05:27:03;20.37;;;3.47;;
52586;SDS011;38480;52.724;6.436;2023-04-25T05:29:30;14.37;;;4.07;;
52586;SDS011;38480;52.724;6.436;2023-04-25T05:31:56;14.13;;;4.50;;
52586;SDS011;38480;52.724;6.436;2023-04-25T05:34:22;15.53;;;3.13;;
52586;SDS011;38480;52.724;6.436;2023-04-25T05:36:48;10.37;;;3.40;;
52586;SDS011;38480;52.724;6.436;2023-04-25T05:39:17;10.17;;;3.23;;
52586;SDS011;38480;52.724;6.436;2023-04-25T05:41:43;17.60;;;3.83;;
52586;SDS011;38480;52.724;6.436;2023-04-25T05:44:09;12.10;;;3.30;;
52586;SDS011;38480;52.724;6.436;2023-04-25T05:46:35;11.30;;;4.07;;
52586;SDS011;38480;52.724;6.436;2023-04-25T05:49:01;15.03;;;3.10;;
52586;SDS011;38480;52.724;6.436;2023-04-25T05:51:27;14.07;;;3.30;;
52586;SDS011;38480;52.724;6.436;2023-04-25T05:53:53;11.67;;;2.90;;
52586;SDS011;38480;52.724;6.436;2023-04-25T05:56:19;30.70;;;5.43;;
52586;SDS011;38480;52.724;6.436;2023-04-25T05:58:45;15.73;;;4.10;;
52586;SDS011;38480;52.724;6.436;2023-04-25T06:01:12;21.93;;;4.60;;
52586;SDS011;38480;52.724;6.436;2023-04-25T06:03:38;13.73;;;3.27;;
52586;SDS011;38480;52.724;6.436;2023-04-25T06:06:04;19.10;;;3.97;;
52586;SDS011;38480;52.724;6.436;2023-04-25T06:08:30;13.37;;;3.60;;
52586;SDS011;38480;52.724;6.436;2023-04-25T06:10:56;17.53;;;3.77;;
52586;SDS011;38480;52.724;6.436;2023-04-25T06:13:22;14.37;;;2.87;;
52586;SDS011;38480;52.724;6.436;2023-04-25T06:15:48;11.73;;;3.10;;
52586;SDS011;38480;52.724;6.436;2023-04-25T06:18:14;14.33;;;2.70;;
52586;SDS011;38480;52.724;6.436;2023-04-25T06:20:40;15.77;;;3.83;;
52586;SDS011;38480;52.724;6.436;2023-04-25T06:23:06;15.47;;;3.07;;
52586;SDS011;38480;52.724;6.436;2023-04-25T06:25:32;17.07;;;2.77;;
52586;SDS011;38480;52.724;6.436;2023-04-25T06:27:58;16.93;;;2.90;;
52586;SDS011;38480;52.724;6.436;2023-04-25T06:30:24;16.10;;;3.20;;
52586;SDS011;38480;52.724;6.436;2023-04-25T06:32:53;10.73;;;2.70;;
52586;SDS011;38480;52.724;6.436;2023-04-25T06:35:20;12.17;;;2.43;;
52586;SDS011;38480;52.724;6.436;2023-04-25T06:37:46;7.67;;;1.90;;
52586;SDS011;38480;52.724;6.436;2023-04-25T06:40:12;11.40;;;2.37;;
52586;SDS011;38480;52.724;6.436;2023-04-25T06:42:38;10.33;;;2.80;;
52586;SDS011;38480;52.724;6.436;2023-04-25T06:45:04;13.83;;;2.77;;
52586;SDS011;38480;52.724;6.436;2023-04-25T06:47:31;10.20;;;2.57;;
52586;SDS011;38480;52.724;6.436;2023-04-25T06:49:57;9.73;;;2.40;;
52586;SDS011;38480;52.724;6.436;2023-04-25T06:52:23;12.27;;;2.53;;
52586;SDS011;38480;52.724;6.436;2023-04-25T06:54:49;11.73;;;1.97;;
52586;SDS011;38480;52.724;6.436;2023-04-25T06:57:15;12.43;;;2.23;;
52586;SDS011;38480;52.724;6.436;2023-04-25T06:59:41;8.97;;;1.77;;
52586;SDS011;38480;52.724;6.436;2023-04-25T07:02:07;10.90;;;2.10;;
52586;SDS011;38480;52.724;6.436;2023-04-25T07:04:33;6.43;;;2.20;;
52586;SDS011;38480;52.724;6.436;2023-04-25T07:06:59;12.47;;;3.47;;
52586;SDS011;38480;52.724;6.436;2023-04-25T07:09:27;15.50;;;2.37;;
52586;SDS011;38480;52.724;6.436;2023-04-25T07:11:53;14.57;;;2.33;;
52586;SDS011;38480;52.724;6.436;2023-04-25T07:14:19;15.03;;;2.33;;
52586;SDS011;38480;52.724;6.436;2023-04-25T07:16:45;20.27;;;5.67;;
52586;SDS011;38480;52.724;6.436;2023-04-25T07:19:11;10.13;;;1.97;;
52586;SDS011;38480;52.724;6.436;2023-04-25T07:21:37;12.43;;;2.40;;
52586;SDS011;38480;52.724;6.436;2023-04-25T07:24:04;10.80;;;2.50;;
52586;SDS011;38480;52.724;6.436;2023-04-25T07:26:30;14.57;;;3.47;;
52586;SDS011;38480;52.724;6.436;2023-04-25T07:28:56;10.00;;;2.10;;
52586;SDS011;38480;52.724;6.436;2023-04-25T07:31:22;11.50;;;1.83;;
52586;SDS011;38480;52.724;6.436;2023-04-25T07:33:48;13.80;;;1.87;;
52586;SDS011;38480;52.724;6.436;2023-04-25T07:36:14;11.97;;;2.93;;
52586;SDS011;38480;52.724;6.436;2023-04-25T07:38:40;11.90;;;2.13;;
52586;SDS011;38480;52.724;6.436;2023-04-25T07:41:06;6.97;;;1.70;;
52586;SDS011;38480;52.724;6.436;2023-04-25T07:43:32;9.30;;;1.50;;
52586;SDS011;38480;52.724;6.436;2023-04-25T07:45:58;9.93;;;1.90;;
52586;SDS011;38480;52.724;6.436;2023-04-25T07:48:24;6.07;;;1.87;;
52586;SDS011;38480;52.724;6.436;2023-04-25T07:50:50;9.27;;;1.90;;
52586;SDS011;38480;52.724;6.436;2023-04-25T07:53:17;9.87;;;1.97;;
52586;SDS011;38480;52.724;6.436;2023-04-25T07:55:43;5.53;;;1.70;;
52586;SDS011;38480;52.724;6.436;2023-04-25T07:58:11;9.17;;;1.80;;
52586;SDS011;38480;52.724;6.436;2023-04-25T08:00:38;8.67;;;1.73;;
52586;SDS011;38480;52.724;6.436;2023-04-25T08:03:05;12.23;;;2.23;;
52586;SDS011;38480;52.724;6.436;2023-04-25T08:05:31;14.23;;;1.80;;
52586;SDS011;38480;52.724;6.436;2023-04-25T08:07:57;6.30;;;1.83;;
52586;SDS011;38480;52.724;6.436;2023-04-25T08:10:24;14.20;;;2.43;;
52586;SDS011;38480;52.724;6.436;2023-04-25T08:12:50;7.60;;;1.90;;
52586;SDS011;38480;52.724;6.436;2023-04-25T08:15:16;14.10;;;1.80;;
52586;SDS011;38480;52.724;6.436;2023-04-25T08:17:42;12.57;;;1.83;;
52586;SDS011;38480;52.724;6.436;2023-04-25T08:20:09;10.00;;;1.80;;
52586;SDS011;38480;52.724;6.436;2023-04-25T08:22:35;4.77;;;1.10;;
52586;SDS011;38480;52.724;6.436;2023-04-25T08:25:02;5.50;;;1.00;;
52586;SDS011;38480;52.724;6.436;2023-04-25T08:27:28;9.43;;;1.30;;
52586;SDS011;38480;52.724;6.436;2023-04-25T08:29:54;8.57;;;1.17;;
52586;SDS011;38480;52.724;6.436;2023-04-25T08:32:20;11.90;;;1.57;;
52586;SDS011;38480;52.724;6.436;2023-04-25T08:34:46;5.80;;;0.97;;
52586;SDS011;38480;52.724;6.436;2023-04-25T08:37:12;8.60;;;1.67;;
52586;SDS011;38480;52.724;6.436;2023-04-25T08:39:38;2.77;;;1.10;;
52586;SDS011;38480;52.724;6.436;2023-04-25T08:42:07;8.20;;;1.40;;
52586;SDS011;38480;52.724;6.436;2023-04-25T08:44:34;5.60;;;1.17;;
52586;SDS011;38480;52.724;6.436;2023-04-25T08:47:02;4.87;;;0.90;;
52586;SDS011;38480;52.724;6.436;2023-04-25T08:49:28;7.20;;;1.00;;
52586;SDS011;38480;52.724;6.436;2023-04-25T08:51:55;4.00;;;0.90;;
52586;SDS011;38480;52.724;6.436;2023-04-25T08:54:24;4.47;;;0.90;;
52586;SDS011;38480;52.724;6.436;2023-04-25T08:56:53;7.17;;;1.50;;
52586;SDS011;38480;52.724;6.436;2023-04-25T08:59:20;5.23;;;1.00;;
52586;SDS011;38480;52.724;6.436;2023-04-25T09:01:47;7.10;;;1.40;;
52586;SDS011;38480;52.724;6.436;2023-04-25T09:04:13;2.57;;;0.83;;
52586;SDS011;38480;52.724;6.436;2023-04-25T09:06:39;5.53;;;1.47;;
52586;SDS011;38480;52.724;6.436;2023-04-25T09:09:05;4.33;;;0.93;;
52586;SDS011;38480;52.724;6.436;2023-04-25T09:11:32;4.93;;;1.17;;
52586;SDS011;38480;52.724;6.436;2023-04-25T09:16:57;16.43;;;1.80;;
52586;SDS011;38480;52.724;6.436;2023-04-25T09:19:31;10.10;;;1.30;;
52586;SDS011;38480;52.724;6.436;2023-04-25T09:21:59;7.07;;;1.63;;
52586;SDS011;38480;52.724;6.436;2023-04-25T09:24:32;7.83;;;2.40;;
52586;SDS011;38480;52.724;6.436;2023-04-25T09:26:58;8.35;;;1.40;;
52586;SDS011;38480;52.724;6.436;2023-04-25T09:29:33;6.23;;;1.97;;
52586;SDS011;38480;52.724;6.436;2023-04-25T09:32:19;11.90;;;2.83;;
52586;SDS011;38480;52.724;6.436;2023-04-25T09:34:49;7.40;;;1.40;;
52586;SDS011;38480;52.724;6.436;2023-04-25T09:37:19;10.33;;;2.70;;
52586;SDS011;38480;52.724;6.436;2023-04-25T09:39:47;10.90;;;1.90;;
52586;SDS011;38480;52.724;6.436;2023-04-25T09:42:14;5.40;;;1.07;;
52586;SDS011;38480;52.724;6.436;2023-04-25T09:44:44;6.80;;;2.10;;
52586;SDS011;38480;52.724;6.436;2023-04-25T09:47:12;10.43;;;2.40;;
52586;SDS011;38480;52.724;6.436;2023-04-25T09:49:39;5.60;;;1.47;;
52586;SDS011;38480;52.724;6.436;2023-04-25T09:52:07;10.37;;;1.40;;
52586;SDS011;38480;52.724;6.436;2023-04-25T09:54:33;8.17;;;1.97;;
52586;SDS011;38480;52.724;6.436;2023-04-25T09:57:02;8.00;;;1.40;;
52586;SDS011;38480;52.724;6.436;2023-04-25T09:59:32;7.78;;;1.65;;
52586;SDS011;38480;52.724;6.436;2023-04-25T10:01:59;6.97;;;1.57;;
52586;SDS011;38480;52.724;6.436;2023-04-25T10:04:25;6.73;;;1.73;;
52586;SDS011;38480;52.724;6.436;2023-04-25T10:06:53;7.80;;;2.13;;
52586;SDS011;38480;52.724;6.436;2023-04-25T10:09:20;6.93;;;1.60;;
52586;SDS011;38480;52.724;6.436;2023-04-25T10:11:47;9.27;;;1.87;;
52586;SDS011;38480;52.724;6.436;2023-04-25T10:14:14;7.60;;;1.40;;
52586;SDS011;38480;52.724;6.436;2023-04-25T10:16:40;6.13;;;1.40;;
52586;SDS011;38480;52.724;6.436;2023-04-25T10:19:07;15.17;;;1.70;;
52586;SDS011;38480;52.724;6.436;2023-04-25T10:21:33;11.13;;;1.77;;
52586;SDS011;38480;52.724;6.436;2023-04-25T10:24:00;5.77;;;1.67;;
52586;SDS011;38480;52.724;6.436;2023-04-25T10:26:26;6.73;;;1.70;;
52586;SDS011;38480;52.724;6.436;2023-04-25T10:29:02;11.10;;;1.73;;
52586;SDS011;38480;52.724;6.436;2023-04-25T10:31:29;8.47;;;1.30;;
52586;SDS011;38480;52.724;6.436;2023-04-25T10:33:55;3.63;;;1.33;;
52586;SDS011;38480;52.724;6.436;2023-04-25T10:36:22;4.87;;;0.90;;
52586;SDS011;38480;52.724;6.436;2023-04-25T10:38:49;4.83;;;1.23;;
52586;SDS011;38480;52.724;6.436;2023-04-25T10:41:19;7.87;;;1.00;;
52586;SDS011;38480;52.724;6.436;2023-04-25T10:43:46;5.90;;;1.20;;
52586;SDS011;38480;52.724;6.436;2023-04-25T10:46:23;6.77;;;1.63;;
52586;SDS011;38480;52.724;6.436;2023-04-25T10:48:51;7.33;;;1.60;;
52586;SDS011;38480;52.724;6.436;2023-04-25T10:51:18;7.70;;;1.73;;
52586;SDS011;38480;52.724;6.436;2023-04-25T10:53:45;5.57;;;1.53;;
52586;SDS011;38480;52.724;6.436;2023-04-25T10:56:21;5.93;;;1.37;;
52586;SDS011;38480;52.724;6.436;2023-04-25T10:58:47;7.00;;;1.47;;
52586;SDS011;38480;52.724;6.436;2023-04-25T11:01:15;7.73;;;1.97;;
52586;SDS011;38480;52.724;6.436;2023-04-25T11:03:41;7.60;;;1.30;;
52586;SDS011;38480;52.724;6.436;2023-04-25T11:09:10;7.60;;;1.67;;
52586;SDS011;38480;52.724;6.436;2023-04-25T11:11:40;5.80;;;1.23;;
52586;SDS011;38480;52.724;6.436;2023-04-25T11:14:06;5.37;;;1.30;;
52586;SDS011;38480;52.724;6.436;2023-04-25T11:16:32;5.20;;;1.30;;
52586;SDS011;38480;52.724;6.436;2023-04-25T11:18:58;6.67;;;1.87;;
52586;SDS011;38480;52.724;6.436;2023-04-25T11:21:27;9.30;;;1.40;;
52586;SDS011;38480;52.724;6.436;2023-04-25T11:23:53;9.73;;;1.37;;
52586;SDS011;38480;52.724;6.436;2023-04-25T11:26:19;5.57;;;1.30;;
52586;SDS011;38480;52.724;6.436;2023-04-25T11:28:46;5.73;;;1.20;;
52586;SDS011;38480;52.724;6.436;2023-04-25T11:31:12;8.00;;;1.37;;
52586;SDS011;38480;52.724;6.436;2023-04-25T11:33:38;5.27;;;1.00;;
52586;SDS011;38480;52.724;6.436;2023-04-25T11:36:05;6.63;;;1.40;;
52586;SDS011;38480;52.724;6.436;2023-04-25T11:38:32;3.70;;;1.17;;
52586;SDS011;38480;52.724;6.436;2023-04-25T11:40:58;5.17;;;1.40;;
52586;SDS011;38480;52.724;6.436;2023-04-25T11:43:25;4.27;;;1.37;;
52586;SDS011;38480;52.724;6.436;2023-04-25T11:45:51;7.47;;;1.50;;
52586;SDS011;38480;52.724;6.436;2023-04-25T11:48:20;5.47;;;1.40;;
52586;SDS011;38480;52.724;6.436;2023-04-25T11:50:46;6.30;;;1.17;;
52586;SDS011;38480;52.724;6.436;2023-04-25T11:53:12;5.60;;;1.10;;
52586;SDS011;38480;52.724;6.436;2023-04-25T11:55:38;6.93;;;1.93;;
52586;SDS011;38480;52.724;6.436;2023-04-25T11:58:05;6.53;;;1.33;;
52586;SDS011;38480;52.724;6.436;2023-04-25T12:00:32;4.60;;;1.43;;
52586;SDS011;38480;52.724;6.436;2023-04-25T12:02:58;5.40;;;1.50;;
52586;SDS011;38480;52.724;6.436;2023-04-25T12:05:25;5.53;;;1.20;;
52586;SDS011;38480;52.724;6.436;2023-04-25T12:07:51;5.87;;;1.03;;
52586;SDS011;38480;52.724;6.436;2023-04-25T12:10:18;2.90;;;1.00;;
52586;SDS011;38480;52.724;6.436;2023-04-25T12:12:45;7.53;;;1.47;;
52586;SDS011;38480;52.724;6.436;2023-04-25T12:15:12;4.30;;;1.10;;
52586;SDS011;38480;52.724;6.436;2023-04-25T12:17:40;7.13;;;1.30;;
52586;SDS011;38480;52.724;6.436;2023-04-25T12:20:07;8.03;;;1.40;;
52586;SDS011;38480;52.724;6.436;2023-04-25T12:22:34;6.20;;;1.37;;
52586;SDS011;38480;52.724;6.436;2023-04-25T12:25:01;7.77;;;2.10;;
52586;SDS011;38480;52.724;6.436;2023-04-25T12:27:30;5.30;;;1.30;;
52586;SDS011;38480;52.724;6.436;2023-04-25T12:29:56;4.90;;;1.30;;
52586;SDS011;38480;52.724;6.436;2023-04-25T12:32:22;6.53;;;1.40;;
52586;SDS011;38480;52.724;6.436;2023-04-25T12:34:49;7.40;;;1.60;;
52586;SDS011;38480;52.724;6.436;2023-04-25T12:37:15;7.83;;;1.50;;
52586;SDS011;38480;52.724;6.436;2023-04-25T12:39:41;8.50;;;1.50;;
52586;SDS011;38480;52.724;6.436;2023-04-25T12:42:07;6.17;;;1.10;;
52586;SDS011;38480;52.724;6.436;2023-04-25T12:44:36;7.13;;;1.57;;
52586;SDS011;38480;52.724;6.436;2023-04-25T12:47:03;5.47;;;1.70;;
52586;SDS011;38480;52.724;6.436;2023-04-25T12:49:29;6.07;;;1.40;;
52586;SDS011;38480;52.724;6.436;2023-04-25T12:51:55;5.90;;;1.20;;
52586;SDS011;38480;52.724;6.436;2023-04-25T12:54:21;2.93;;;0.87;;
52586;SDS011;38480;52.724;6.436;2023-04-25T12:56:47;6.43;;;1.17;;
52586;SDS011;38480;52.724;6.436;2023-04-25T12:59:15;5.57;;;1.40;;
52586;SDS011;38480;52.724;6.436;2023-04-25T13:01:41;6.57;;;1.30;;
52586;SDS011;38480;52.724;6.436;2023-04-25T13:04:07;5.77;;;1.73;;
52586;SDS011;38480;52.724;6.436;2023-04-25T13:06:33;5.97;;;1.40;;
52586;SDS011;38480;52.724;6.436;2023-04-25T13:08:59;7.10;;;1.40;;
52586;SDS011;38480;52.724;6.436;2023-04-25T13:11:26;6.37;;;1.67;;
52586;SDS011;38480;52.724;6.436;2023-04-25T13:13:52;7.03;;;1.40;;
52586;SDS011;38480;52.724;6.436;2023-04-25T13:16:18;5.03;;;1.40;;
52586;SDS011;38480;52.724;6.436;2023-04-25T13:18:45;4.37;;;1.30;;
52586;SDS011;38480;52.724;6.436;2023-04-25T13:21:12;4.27;;;0.87;;
52586;SDS011;38480;52.724;6.436;2023-04-25T13:23:38;5.20;;;1.73;;
52586;SDS011;38480;52.724;6.436;2023-04-25T13:26:05;8.90;;;1.60;;
52586;SDS011;38480;52.724;6.436;2023-04-25T13:28:31;7.20;;;1.70;;
52586;SDS011;38480;52.724;6.436;2023-04-25T13:30:57;10.13;;;1.60;;
52586;SDS011;38480;52.724;6.436;2023-04-25T13:33:24;6.17;;;1.33;;
52586;SDS011;38480;52.724;6.436;2023-04-25T13:35:51;7.77;;;1.57;;
52586;SDS011;38480;52.724;6.436;2023-04-25T13:38:22;5.67;;;1.50;;
52586;SDS011;38480;52.724;6.436;2023-04-25T13:40:48;9.20;;;2.33;;
52586;SDS011;38480;52.724;6.436;2023-04-25T13:43:14;6.20;;;1.40;;
52586;SDS011;38480;52.724;6.436;2023-04-25T13:45:41;7.13;;;1.60;;
52586;SDS011;38480;52.724;6.436;2023-04-25T13:48:07;7.33;;;1.30;;
52586;SDS011;38480;52.724;6.436;2023-04-25T13:50:33;7.83;;;1.63;;
52586;SDS011;38480;52.724;6.436;2023-04-25T13:53:00;5.53;;;1.37;;
52586;SDS011;38480;52.724;6.436;2023-04-25T13:55:26;5.97;;;1.63;;
52586;SDS011;38480;52.724;6.436;2023-04-25T13:57:52;6.63;;;1.60;;
52586;SDS011;38480;52.724;6.436;2023-04-25T14:00:18;3.80;;;1.17;;
52586;SDS011;38480;52.724;6.436;2023-04-25T14:02:45;7.00;;;1.50;;
52586;SDS011;38480;52.724;6.436;2023-04-25T14:05:11;8.07;;;1.80;;
52586;SDS011;38480;52.724;6.436;2023-04-25T14:07:38;6.90;;;1.50;;
52586;SDS011;38480;52.724;6.436;2023-04-25T14:10:04;8.13;;;1.30;;
52586;SDS011;38480;52.724;6.436;2023-04-25T14:12:31;7.10;;;1.53;;
52586;SDS011;38480;52.724;6.436;2023-04-25T14:14:57;4.13;;;1.23;;
52586;SDS011;38480;52.724;6.436;2023-04-25T14:17:23;5.47;;;1.27;;
52586;SDS011;38480;52.724;6.436;2023-04-25T14:19:49;4.33;;;1.13;;
52586;SDS011;38480;52.724;6.436;2023-04-25T14:22:15;4.13;;;1.20;;
52586;SDS011;38480;52.724;6.436;2023-04-25T14:24:41;6.87;;;1.57;;
52586;SDS011;38480;52.724;6.436;2023-04-25T14:27:08;5.73;;;1.20;;
52586;SDS011;38480;52.724;6.436;2023-04-25T14:29:34;6.67;;;1.47;;
52586;SDS011;38480;52.724;6.436;2023-04-25T14:32:00;9.47;;;1.40;;
52586;SDS011;38480;52.724;6.436;2023-04-25T14:34:27;5.33;;;1.37;;
52586;SDS011;38480;52.724;6.436;2023-04-25T14:36:53;6.07;;;1.20;;
52586;SDS011;38480;52.724;6.436;2023-04-25T14:39:19;8.17;;;1.60;;
52586;SDS011;38480;52.724;6.436;2023-04-25T14:41:45;7.87;;;1.60;;
52586;SDS011;38480;52.724;6.436;2023-04-25T14:44:11;5.67;;;1.20;;